sensor_id;sensor_type;location;lat;lon;timestamp;temperature;humidity
12769;DHT22;6448;48.916;8.990;2024-02-23T00:00:18;12.30;55.10
12769;DHT22;6448;48.916;8.990;2024-02-23T00:01:20;12.30;55.00
12769;DHT22;6448;48.916;8.990;2024-02-23T00:02:20;12.30;55.10
12769;DHT22;6448;48.916;8.990;2024-02-23T00:03:21;12.30;55.10
12769;DHT22;6448;48.916;8.990;2024-02-23T00:04:24;12.30;55.00
12769;DHT22;6448;48.916;8.990;2024-02-23T00:05:25;12.30;54.80
12769;DHT22;6448;48.916;8.990;2024-02-23T00:06:27;12.30;54.80
12769;DHT22;6448;48.916;8.990;2024-02-23T00:07:28;12.30;54.80
12769;DHT22;6448;48.916;8.990;2024-02-23T00:08:30;12.30;54.80
12769;DHT22;6448;48.916;8.990;2024-02-23T00:09:30;12.20;54.70
12769;DHT22;6448;48.916;8.990;2024-02-23T00:10:32;12.30;54.60
12769;DHT22;6448;48.916;8.990;2024-02-23T00:11:33;12.30;54.40
12769;DHT22;6448;48.916;8.990;2024-02-23T00:12:40;12.30;54.40
12769;DHT22;6448;48.916;8.990;2024-02-23T00:13:40;12.30;54.40
12769;DHT22;6448;48.916;8.990;2024-02-23T00:14:42;12.30;54.20
12769;DHT22;6448;48.916;8.990;2024-02-23T00:15:43;12.20;54.10
12769;DHT22;6448;48.916;8.990;2024-02-23T00:16:44;12.20;54.20
12769;DHT22;6448;48.916;8.990;2024-02-23T00:17:46;12.20;54.20
12769;DHT22;6448;48.916;8.990;2024-02-23T00:18:47;12.20;54.20
12769;DHT22;6448;48.916;8.990;2024-02-23T00:19:50;12.20;54.10
12769;DHT22;6448;48.916;8.990;2024-02-23T00:20:53;12.20;54.10
12769;DHT22;6448;48.916;8.990;2024-02-23T00:21:54;12.20;54.10
12769;DHT22;6448;48.916;8.990;2024-02-23T00:22:55;12.20;53.90
12769;DHT22;6448;48.916;8.990;2024-02-23T00:23:57;12.40;54.00
12769;DHT22;6448;48.916;8.990;2024-02-23T00:24:58;12.20;53.80
12769;DHT22;6448;48.916;8.990;2024-02-23T00:26:00;12.10;53.70
12769;DHT22;6448;48.916;8.990;2024-02-23T00:27:00;12.20;53.70
12769;DHT22;6448;48.916;8.990;2024-02-23T00:28:01;12.10;53.40
12769;DHT22;6448;48.916;8.990;2024-02-23T00:29:03;12.10;53.30
12769;DHT22;6448;48.916;8.990;2024-02-23T00:30:04;12.10;53.20
12769;DHT22;6448;48.916;8.990;2024-02-23T00:31:06;12.10;53.30
12769;DHT22;6448;48.916;8.990;2024-02-23T00:32:07;12.10;53.30
12769;DHT22;6448;48.916;8.990;2024-02-23T00:33:09;12.10;53.30
12769;DHT22;6448;48.916;8.990;2024-02-23T00:34:10;12.10;53.20
12769;DHT22;6448;48.916;8.990;2024-02-23T00:35:15;12.10;53.10
12769;DHT22;6448;48.916;8.990;2024-02-23T00:36:16;12.10;53.00
12769;DHT22;6448;48.916;8.990;2024-02-23T00:37:17;12.10;52.90
12769;DHT22;6448;48.916;8.990;2024-02-23T00:38:18;12.10;52.80
12769;DHT22;6448;48.916;8.990;2024-02-23T00:39:19;12.10;52.80
12769;DHT22;6448;48.916;8.990;2024-02-23T00:40:21;12.10;52.80
12769;DHT22;6448;48.916;8.990;2024-02-23T00:41:23;12.10;52.90
12769;DHT22;6448;48.916;8.990;2024-02-23T00:42:25;12.30;53.00
12769;DHT22;6448;48.916;8.990;2024-02-23T00:43:26;12.10;52.80
12769;DHT22;6448;48.916;8.990;2024-02-23T00:44:29;12.10;52.80
12769;DHT22;6448;48.916;8.990;2024-02-23T00:45:30;12.20;52.90
12769;DHT22;6448;48.916;8.990;2024-02-23T00:46:32;12.10;52.90
12769;DHT22;6448;48.916;8.990;2024-02-23T00:47:33;12.10;53.00
12769;DHT22;6448;48.916;8.990;2024-02-23T00:48:35;12.20;53.10
12769;DHT22;6448;48.916;8.990;2024-02-23T00:49:37;12.10;53.00
12769;DHT22;6448;48.916;8.990;2024-02-23T00:50:39;12.10;53.00
12769;DHT22;6448;48.916;8.990;2024-02-23T00:51:41;12.10;53.00
12769;DHT22;6448;48.916;8.990;2024-02-23T00:52:42;12.10;53.10
12769;DHT22;6448;48.916;8.990;2024-02-23T00:53:44;12.10;53.10
12769;DHT22;6448;48.916;8.990;2024-02-23T00:54:44;12.10;53.10
12769;DHT22;6448;48.916;8.990;2024-02-23T00:55:46;12.10;53.00
12769;DHT22;6448;48.916;8.990;2024-02-23T00:56:47;12.10;53.00
12769;DHT22;6448;48.916;8.990;2024-02-23T00:57:49;12.10;52.80
12769;DHT22;6448;48.916;8.990;2024-02-23T00:58:49;12.10;52.80
12769;DHT22;6448;48.916;8.990;2024-02-23T00:59:51;12.10;52.80
12769;DHT22;6448;48.916;8.990;2024-02-23T01:00:52;12.10;52.70
12769;DHT22;6448;48.916;8.990;2024-02-23T01:01:54;12.10;52.60
12769;DHT22;6448;48.916;8.990;2024-02-23T01:02:55;12.10;52.70
12769;DHT22;6448;48.916;8.990;2024-02-23T01:03:59;12.10;52.50
12769;DHT22;6448;48.916;8.990;2024-02-23T01:05:00;12.10;52.50
12769;DHT22;6448;48.916;8.990;2024-02-23T01:06:04;12.10;52.50
12769;DHT22;6448;48.916;8.990;2024-02-23T01:07:05;12.10;52.40
12769;DHT22;6448;48.916;8.990;2024-02-23T01:08:07;12.10;52.40
12769;DHT22;6448;48.916;8.990;2024-02-23T01:09:07;12.10;52.30
12769;DHT22;6448;48.916;8.990;2024-02-23T01:10:09;12.10;52.30
12769;DHT22;6448;48.916;8.990;2024-02-23T01:11:10;12.20;52.30
12769;DHT22;6448;48.916;8.990;2024-02-23T01:12:12;12.10;52.30
12769;DHT22;6448;48.916;8.990;2024-02-23T01:13:13;12.10;52.30
12769;DHT22;6448;48.916;8.990;2024-02-23T01:14:15;12.10;52.20
12769;DHT22;6448;48.916;8.990;2024-02-23T01:15:16;12.10;52.20
12769;DHT22;6448;48.916;8.990;2024-02-23T01:16:17;12.10;52.30
12769;DHT22;6448;48.916;8.990;2024-02-23T01:17:18;12.10;52.30
12769;DHT22;6448;48.916;8.990;2024-02-23T01:18:19;12.10;52.20
12769;DHT22;6448;48.916;8.990;2024-02-23T01:19:21;12.10;52.20
12769;DHT22;6448;48.916;8.990;2024-02-23T01:20:22;12.00;52.20
12769;DHT22;6448;48.916;8.990;2024-02-23T01:21:25;12.10;52.20
12769;DHT22;6448;48.916;8.990;2024-02-23T01:22:26;12.10;52.20
12769;DHT22;6448;48.916;8.990;2024-02-23T01:23:28;12.10;52.30
12769;DHT22;6448;48.916;8.990;2024-02-23T01:24:28;11.90;52.20
12769;DHT22;6448;48.916;8.990;2024-02-23T01:25:30;12.10;52.20
12769;DHT22;6448;48.916;8.990;2024-02-23T01:26:31;12.30;52.20
12769;DHT22;6448;48.916;8.990;2024-02-23T01:27:32;12.10;52.00
12769;DHT22;6448;48.916;8.990;2024-02-23T01:28:34;12.10;51.90
12769;DHT22;6448;48.916;8.990;2024-02-23T01:29:34;12.10;51.80
12769;DHT22;6448;48.916;8.990;2024-02-23T01:30:36;12.10;51.80
12769;DHT22;6448;48.916;8.990;2024-02-23T01:31:37;12.00;51.70
12769;DHT22;6448;48.916;8.990;2024-02-23T01:32:39;12.00;51.80
12769;DHT22;6448;48.916;8.990;2024-02-23T01:33:39;12.10;51.80
12769;DHT22;6448;48.916;8.990;2024-02-23T01:34:41;12.20;51.90
12769;DHT22;6448;48.916;8.990;2024-02-23T01:35:42;12.00;51.80
12769;DHT22;6448;48.916;8.990;2024-02-23T01:36:45;12.10;52.00
12769;DHT22;6448;48.916;8.990;2024-02-23T01:37:46;12.00;51.90
12769;DHT22;6448;48.916;8.990;2024-02-23T01:38:48;12.10;52.00
12769;DHT22;6448;48.916;8.990;2024-02-23T01:39:48;12.10;52.00
12769;DHT22;6448;48.916;8.990;2024-02-23T01:40:50;12.10;51.90
12769;DHT22;6448;48.916;8.990;2024-02-23T01:41:51;12.00;51.70
12769;DHT22;6448;48.916;8.990;2024-02-23T01:43:00;12.00;52.40
12769;DHT22;6448;48.916;8.990;2024-02-23T01:44:03;12.10;51.90
12769;DHT22;6448;48.916;8.990;2024-02-23T01:45:05;12.10;51.90
12769;DHT22;6448;48.916;8.990;2024-02-23T01:46:08;12.10;52.00
12769;DHT22;6448;48.916;8.990;2024-02-23T01:47:09;12.00;52.10
12769;DHT22;6448;48.916;8.990;2024-02-23T01:48:11;12.00;52.20
12769;DHT22;6448;48.916;8.990;2024-02-23T01:49:12;12.00;52.30
12769;DHT22;6448;48.916;8.990;2024-02-23T01:50:14;12.10;52.30
12769;DHT22;6448;48.916;8.990;2024-02-23T01:51:16;12.10;52.40
12769;DHT22;6448;48.916;8.990;2024-02-23T01:52:18;12.10;52.40
12769;DHT22;6448;48.916;8.990;2024-02-23T01:53:21;12.00;52.50
12769;DHT22;6448;48.916;8.990;2024-02-23T01:54:22;12.10;52.50
12769;DHT22;6448;48.916;8.990;2024-02-23T01:55:24;12.00;52.50
12769;DHT22;6448;48.916;8.990;2024-02-23T01:56:26;12.10;52.60
12769;DHT22;6448;48.916;8.990;2024-02-23T01:57:27;12.10;52.60
12769;DHT22;6448;48.916;8.990;2024-02-23T02:03:13;12.00;52.90
12769;DHT22;6448;48.916;8.990;2024-02-23T02:04:15;12.00;53.20
12769;DHT22;6448;48.916;8.990;2024-02-23T02:05:16;12.00;53.30
12769;DHT22;6448;48.916;8.990;2024-02-23T02:06:17;12.00;53.20
12769;DHT22;6448;48.916;8.990;2024-02-23T02:07:20;12.00;53.20
12769;DHT22;6448;48.916;8.990;2024-02-23T02:08:23;11.90;53.20
12769;DHT22;6448;48.916;8.990;2024-02-23T02:09:25;11.90;53.20
12769;DHT22;6448;48.916;8.990;2024-02-23T02:10:26;12.00;53.30
12769;DHT22;6448;48.916;8.990;2024-02-23T02:11:28;11.90;53.30
12769;DHT22;6448;48.916;8.990;2024-02-23T02:12:29;11.90;53.40
12769;DHT22;6448;48.916;8.990;2024-02-23T02:13:30;11.90;53.50
12769;DHT22;6448;48.916;8.990;2024-02-23T02:14:31;11.90;53.70
12769;DHT22;6448;48.916;8.990;2024-02-23T02:15:34;11.90;53.70
12769;DHT22;6448;48.916;8.990;2024-02-23T02:16:35;11.90;53.80
12769;DHT22;6448;48.916;8.990;2024-02-23T02:17:37;11.90;53.80
12769;DHT22;6448;48.916;8.990;2024-02-23T02:18:37;11.90;53.90
12769;DHT22;6448;48.916;8.990;2024-02-23T02:19:38;12.10;54.10
12769;DHT22;6448;48.916;8.990;2024-02-23T02:20:50;11.80;54.00
12769;DHT22;6448;48.916;8.990;2024-02-23T02:21:51;11.90;54.20
12769;DHT22;6448;48.916;8.990;2024-02-23T02:22:55;11.80;54.20
12769;DHT22;6448;48.916;8.990;2024-02-23T02:23:55;11.80;54.20
12769;DHT22;6448;48.916;8.990;2024-02-23T02:24:57;12.00;54.30
12769;DHT22;6448;48.916;8.990;2024-02-23T02:25:58;11.80;54.30
12769;DHT22;6448;48.916;8.990;2024-02-23T02:27:00;11.80;54.40
12769;DHT22;6448;48.916;8.990;2024-02-23T02:28:01;11.80;54.60
12769;DHT22;6448;48.916;8.990;2024-02-23T02:29:06;11.80;54.60
12769;DHT22;6448;48.916;8.990;2024-02-23T02:30:07;11.80;54.70
12769;DHT22;6448;48.916;8.990;2024-02-23T02:31:09;11.90;54.80
12769;DHT22;6448;48.916;8.990;2024-02-23T02:32:10;11.80;54.70
12769;DHT22;6448;48.916;8.990;2024-02-23T02:33:11;11.90;54.70
12769;DHT22;6448;48.916;8.990;2024-02-23T02:34:12;11.90;54.60
12769;DHT22;6448;48.916;8.990;2024-02-23T02:35:15;11.90;54.40
12769;DHT22;6448;48.916;8.990;2024-02-23T02:36:16;11.90;54.30
12769;DHT22;6448;48.916;8.990;2024-02-23T02:37:17;11.90;54.20
12769;DHT22;6448;48.916;8.990;2024-02-23T02:38:19;11.90;54.30
12769;DHT22;6448;48.916;8.990;2024-02-23T02:39:21;11.90;54.30
12769;DHT22;6448;48.916;8.990;2024-02-23T02:40:22;11.90;54.20
12769;DHT22;6448;48.916;8.990;2024-02-23T02:41:28;11.90;54.20
12769;DHT22;6448;48.916;8.990;2024-02-23T02:42:30;11.90;54.10
12769;DHT22;6448;48.916;8.990;2024-02-23T02:43:32;11.90;54.10
12769;DHT22;6448;48.916;8.990;2024-02-23T02:44:32;11.90;54.20
12769;DHT22;6448;48.916;8.990;2024-02-23T02:45:34;12.00;54.20
12769;DHT22;6448;48.916;8.990;2024-02-23T02:46:35;12.00;54.20
12769;DHT22;6448;48.916;8.990;2024-02-23T02:47:37;12.00;54.20
12769;DHT22;6448;48.916;8.990;2024-02-23T02:48:38;12.10;54.20
12769;DHT22;6448;48.916;8.990;2024-02-23T02:49:40;12.00;54.20
12769;DHT22;6448;48.916;8.990;2024-02-23T02:50:41;12.00;54.20
12769;DHT22;6448;48.916;8.990;2024-02-23T02:51:43;12.00;54.10
12769;DHT22;6448;48.916;8.990;2024-02-23T02:52:45;12.10;53.90
12769;DHT22;6448;48.916;8.990;2024-02-23T02:53:49;12.00;53.80
12769;DHT22;6448;48.916;8.990;2024-02-23T02:54:49;12.20;53.70
12769;DHT22;6448;48.916;8.990;2024-02-23T02:55:51;12.00;53.50
12769;DHT22;6448;48.916;8.990;2024-02-23T02:56:52;12.00;53.40
12769;DHT22;6448;48.916;8.990;2024-02-23T02:57:54;12.00;53.30
12769;DHT22;6448;48.916;8.990;2024-02-23T02:58:56;12.00;53.20
12769;DHT22;6448;48.916;8.990;2024-02-23T02:59:57;12.00;53.10
12769;DHT22;6448;48.916;8.990;2024-02-23T03:00:58;12.00;53.00
12769;DHT22;6448;48.916;8.990;2024-02-23T03:02:00;12.00;52.90
12769;DHT22;6448;48.916;8.990;2024-02-23T03:03:01;12.00;52.80
12769;DHT22;6448;48.916;8.990;2024-02-23T03:04:03;12.00;52.90
12769;DHT22;6448;48.916;8.990;2024-02-23T03:05:04;12.00;52.80
12769;DHT22;6448;48.916;8.990;2024-02-23T03:06:06;12.00;52.70
12769;DHT22;6448;48.916;8.990;2024-02-23T03:07:07;12.00;52.70
12769;DHT22;6448;48.916;8.990;2024-02-23T03:08:09;12.00;52.60
12769;DHT22;6448;48.916;8.990;2024-02-23T03:09:29;11.90;52.50
12769;DHT22;6448;48.916;8.990;2024-02-23T03:10:30;11.90;52.30
12769;DHT22;6448;48.916;8.990;2024-02-23T03:11:32;11.90;52.20
12769;DHT22;6448;48.916;8.990;2024-02-23T03:12:33;11.90;52.10
12769;DHT22;6448;48.916;8.990;2024-02-23T03:13:34;11.90;52.10
12769;DHT22;6448;48.916;8.990;2024-02-23T03:14:36;11.90;52.00
12769;DHT22;6448;48.916;8.990;2024-02-23T03:15:37;11.90;52.00
12769;DHT22;6448;48.916;8.990;2024-02-23T03:16:39;11.90;51.90
12769;DHT22;6448;48.916;8.990;2024-02-23T03:17:40;11.90;51.90
12769;DHT22;6448;48.916;8.990;2024-02-23T03:18:42;11.90;51.90
12769;DHT22;6448;48.916;8.990;2024-02-23T03:19:42;11.90;52.00
12769;DHT22;6448;48.916;8.990;2024-02-23T03:20:44;11.90;51.90
12769;DHT22;6448;48.916;8.990;2024-02-23T03:21:45;11.90;51.90
12769;DHT22;6448;48.916;8.990;2024-02-23T03:22:46;11.90;51.90
12769;DHT22;6448;48.916;8.990;2024-02-23T03:23:48;11.80;51.80
12769;DHT22;6448;48.916;8.990;2024-02-23T03:24:50;11.80;51.70
12769;DHT22;6448;48.916;8.990;2024-02-23T03:25:52;11.80;51.70
12769;DHT22;6448;48.916;8.990;2024-02-23T03:26:52;11.80;51.70
12769;DHT22;6448;48.916;8.990;2024-02-23T03:27:54;11.80;51.60
12769;DHT22;6448;48.916;8.990;2024-02-23T03:28:55;11.80;51.50
12769;DHT22;6448;48.916;8.990;2024-02-23T03:29:57;11.90;51.50
12769;DHT22;6448;48.916;8.990;2024-02-23T03:30:57;11.80;51.40
12769;DHT22;6448;48.916;8.990;2024-02-23T03:32:00;11.80;51.40
12769;DHT22;6448;48.916;8.990;2024-02-23T03:33:02;11.80;51.40
12769;DHT22;6448;48.916;8.990;2024-02-23T03:34:03;11.80;51.30
12769;DHT22;6448;48.916;8.990;2024-02-23T03:35:05;11.80;51.20
12769;DHT22;6448;48.916;8.990;2024-02-23T03:36:08;11.80;51.20
12769;DHT22;6448;48.916;8.990;2024-02-23T03:37:09;11.70;51.10
12769;DHT22;6448;48.916;8.990;2024-02-23T03:38:12;11.80;51.00
12769;DHT22;6448;48.916;8.990;2024-02-23T03:39:13;11.80;51.00
12769;DHT22;6448;48.916;8.990;2024-02-23T03:40:16;11.80;51.00
12769;DHT22;6448;48.916;8.990;2024-02-23T03:41:18;11.90;51.00
12769;DHT22;6448;48.916;8.990;2024-02-23T03:42:20;11.80;50.90
12769;DHT22;6448;48.916;8.990;2024-02-23T03:43:21;11.90;51.00
12769;DHT22;6448;48.916;8.990;2024-02-23T03:44:23;11.70;50.90
12769;DHT22;6448;48.916;8.990;2024-02-23T03:45:23;11.70;51.10
12769;DHT22;6448;48.916;8.990;2024-02-23T03:46:49;11.70;51.10
12769;DHT22;6448;48.916;8.990;2024-02-23T03:47:49;11.70;51.00
12769;DHT22;6448;48.916;8.990;2024-02-23T03:48:51;11.70;50.90
12769;DHT22;6448;48.916;8.990;2024-02-23T03:49:53;11.70;51.00
12769;DHT22;6448;48.916;8.990;2024-02-23T03:50:54;11.70;51.00
12769;DHT22;6448;48.916;8.990;2024-02-23T03:51:56;11.70;51.20
12769;DHT22;6448;48.916;8.990;2024-02-23T03:52:58;11.70;51.20
12769;DHT22;6448;48.916;8.990;2024-02-23T03:53:58;11.70;51.10
12769;DHT22;6448;48.916;8.990;2024-02-23T03:54:59;11.70;51.00
12769;DHT22;6448;48.916;8.990;2024-02-23T03:56:02;11.70;50.80
12769;DHT22;6448;48.916;8.990;2024-02-23T03:57:03;11.70;50.90
12769;DHT22;6448;48.916;8.990;2024-02-23T03:58:05;11.70;50.80
12769;DHT22;6448;48.916;8.990;2024-02-23T03:59:06;11.70;50.90
12769;DHT22;6448;48.916;8.990;2024-02-23T04:00:11;11.70;50.80
12769;DHT22;6448;48.916;8.990;2024-02-23T04:01:16;11.70;50.80
12769;DHT22;6448;48.916;8.990;2024-02-23T04:02:17;11.70;50.90
12769;DHT22;6448;48.916;8.990;2024-02-23T04:03:18;11.90;51.60
12769;DHT22;6448;48.916;8.990;2024-02-23T04:04:20;11.70;50.90
12769;DHT22;6448;48.916;8.990;2024-02-23T04:05:21;11.70;50.90
12769;DHT22;6448;48.916;8.990;2024-02-23T04:06:23;11.70;50.90
12769;DHT22;6448;48.916;8.990;2024-02-23T04:07:23;11.70;50.80
12769;DHT22;6448;48.916;8.990;2024-02-23T04:08:25;11.70;50.90
12769;DHT22;6448;48.916;8.990;2024-02-23T04:09:26;11.70;50.80
12769;DHT22;6448;48.916;8.990;2024-02-23T04:10:28;11.70;50.90
12769;DHT22;6448;48.916;8.990;2024-02-23T04:11:30;11.70;50.80
12769;DHT22;6448;48.916;8.990;2024-02-23T04:12:32;11.70;50.70
12769;DHT22;6448;48.916;8.990;2024-02-23T04:13:33;11.70;50.60
12769;DHT22;6448;48.916;8.990;2024-02-23T04:14:34;11.70;50.50
12769;DHT22;6448;48.916;8.990;2024-02-23T04:15:36;11.70;50.50
12769;DHT22;6448;48.916;8.990;2024-02-23T04:16:38;11.70;50.50
12769;DHT22;6448;48.916;8.990;2024-02-23T04:17:39;11.70;50.50
12769;DHT22;6448;48.916;8.990;2024-02-23T04:18:41;11.70;50.60
12769;DHT22;6448;48.916;8.990;2024-02-23T04:19:53;11.70;50.60
12769;DHT22;6448;48.916;8.990;2024-02-23T04:20:55;11.70;50.50
12769;DHT22;6448;48.916;8.990;2024-02-23T04:21:56;11.70;50.90
12769;DHT22;6448;48.916;8.990;2024-02-23T04:22:58;11.70;50.80
12769;DHT22;6448;48.916;8.990;2024-02-23T04:23:59;11.70;50.10
12769;DHT22;6448;48.916;8.990;2024-02-23T04:25:01;11.60;49.90
12769;DHT22;6448;48.916;8.990;2024-02-23T04:26:01;11.70;49.90
12769;DHT22;6448;48.916;8.990;2024-02-23T04:27:05;11.70;49.80
12769;DHT22;6448;48.916;8.990;2024-02-23T04:28:06;11.70;49.80
12769;DHT22;6448;48.916;8.990;2024-02-23T04:29:08;11.60;49.80
12769;DHT22;6448;48.916;8.990;2024-02-23T04:30:10;11.60;49.80
12769;DHT22;6448;48.916;8.990;2024-02-23T04:31:12;11.60;49.80
12769;DHT22;6448;48.916;8.990;2024-02-23T04:32:13;11.70;49.80
12769;DHT22;6448;48.916;8.990;2024-02-23T04:33:15;11.60;49.90
12769;DHT22;6448;48.916;8.990;2024-02-23T04:34:16;11.60;50.70
12769;DHT22;6448;48.916;8.990;2024-02-23T04:35:16;11.60;50.10
12769;DHT22;6448;48.916;8.990;2024-02-23T04:36:19;11.60;50.10
12769;DHT22;6448;48.916;8.990;2024-02-23T04:37:22;11.60;49.90
12769;DHT22;6448;48.916;8.990;2024-02-23T04:38:22;11.60;49.80
12769;DHT22;6448;48.916;8.990;2024-02-23T04:39:24;11.60;49.60
12769;DHT22;6448;48.916;8.990;2024-02-23T04:40:25;11.80;49.70
12769;DHT22;6448;48.916;8.990;2024-02-23T04:41:26;11.60;49.50
12769;DHT22;6448;48.916;8.990;2024-02-23T04:42:29;11.60;49.40
12769;DHT22;6448;48.916;8.990;2024-02-23T04:43:31;11.70;49.50
12769;DHT22;6448;48.916;8.990;2024-02-23T04:44:32;11.70;49.30
12769;DHT22;6448;48.916;8.990;2024-02-23T04:45:34;11.60;49.10
12769;DHT22;6448;48.916;8.990;2024-02-23T04:46:34;11.60;49.20
12769;DHT22;6448;48.916;8.990;2024-02-23T04:47:36;11.70;49.20
12769;DHT22;6448;48.916;8.990;2024-02-23T04:48:37;11.60;49.10
12769;DHT22;6448;48.916;8.990;2024-02-23T04:49:39;11.60;49.00
12769;DHT22;6448;48.916;8.990;2024-02-23T04:50:39;11.60;48.90
12769;DHT22;6448;48.916;8.990;2024-02-23T04:51:40;11.70;49.00
12769;DHT22;6448;48.916;8.990;2024-02-23T04:52:42;11.70;49.00
12769;DHT22;6448;48.916;8.990;2024-02-23T04:53:43;11.70;48.80
12769;DHT22;6448;48.916;8.990;2024-02-23T04:55:06;11.60;48.80
12769;DHT22;6448;48.916;8.990;2024-02-23T04:56:07;11.60;48.80
12769;DHT22;6448;48.916;8.990;2024-02-23T04:57:08;11.60;48.80
12769;DHT22;6448;48.916;8.990;2024-02-23T04:58:10;11.60;48.90
12769;DHT22;6448;48.916;8.990;2024-02-23T04:59:13;11.70;49.10
12769;DHT22;6448;48.916;8.990;2024-02-23T05:00:14;11.70;49.10
12769;DHT22;6448;48.916;8.990;2024-02-23T05:01:16;11.70;49.10
12769;DHT22;6448;48.916;8.990;2024-02-23T05:02:17;11.70;49.00
12769;DHT22;6448;48.916;8.990;2024-02-23T05:03:19;11.70;49.60
12769;DHT22;6448;48.916;8.990;2024-02-23T05:04:19;11.70;49.00
12769;DHT22;6448;48.916;8.990;2024-02-23T05:05:21;11.80;49.00
12769;DHT22;6448;48.916;8.990;2024-02-23T05:06:22;11.70;49.00
12769;DHT22;6448;48.916;8.990;2024-02-23T05:07:24;11.70;48.90
12769;DHT22;6448;48.916;8.990;2024-02-23T05:08:25;11.70;48.90
12769;DHT22;6448;48.916;8.990;2024-02-23T05:09:28;11.70;49.00
12769;DHT22;6448;48.916;8.990;2024-02-23T05:10:29;11.70;48.70
12769;DHT22;6448;48.916;8.990;2024-02-23T05:11:31;11.70;48.70
12769;DHT22;6448;48.916;8.990;2024-02-23T05:12:31;11.70;48.50
12769;DHT22;6448;48.916;8.990;2024-02-23T05:13:35;11.70;48.50
12769;DHT22;6448;48.916;8.990;2024-02-23T05:14:35;11.80;48.70
12769;DHT22;6448;48.916;8.990;2024-02-23T05:15:37;11.80;48.80
12769;DHT22;6448;48.916;8.990;2024-02-23T05:16:38;11.80;48.90
12769;DHT22;6448;48.916;8.990;2024-02-23T05:17:40;11.70;48.70
12769;DHT22;6448;48.916;8.990;2024-02-23T05:18:41;11.70;48.70
12769;DHT22;6448;48.916;8.990;2024-02-23T05:19:42;11.70;48.80
12769;DHT22;6448;48.916;8.990;2024-02-23T05:20:43;11.70;48.70
12769;DHT22;6448;48.916;8.990;2024-02-23T05:21:44;11.70;48.80
12769;DHT22;6448;48.916;8.990;2024-02-23T05:22:46;11.80;48.90
12769;DHT22;6448;48.916;8.990;2024-02-23T05:23:47;11.70;48.90
12769;DHT22;6448;48.916;8.990;2024-02-23T05:24:49;11.80;49.00
12769;DHT22;6448;48.916;8.990;2024-02-23T05:25:50;11.70;49.00
12769;DHT22;6448;48.916;8.990;2024-02-23T05:26:52;11.80;49.10
12769;DHT22;6448;48.916;8.990;2024-02-23T05:27:53;11.80;49.20
12769;DHT22;6448;48.916;8.990;2024-02-23T05:28:56;11.80;49.20
12769;DHT22;6448;48.916;8.990;2024-02-23T05:29:57;11.80;49.40
12769;DHT22;6448;48.916;8.990;2024-02-23T05:30:58;11.80;49.40
12769;DHT22;6448;48.916;8.990;2024-02-23T05:32:00;11.80;49.50
12769;DHT22;6448;48.916;8.990;2024-02-23T05:33:01;11.80;49.60
12769;DHT22;6448;48.916;8.990;2024-02-23T05:34:03;11.80;49.60
12769;DHT22;6448;48.916;8.990;2024-02-23T05:35:05;11.80;49.60
12769;DHT22;6448;48.916;8.990;2024-02-23T05:36:07;11.80;49.60
12769;DHT22;6448;48.916;8.990;2024-02-23T05:37:08;11.80;49.70
12769;DHT22;6448;48.916;8.990;2024-02-23T05:38:10;11.80;49.80
12769;DHT22;6448;48.916;8.990;2024-02-23T05:39:11;11.80;49.80
12769;DHT22;6448;48.916;8.990;2024-02-23T05:40:13;11.80;49.90
12769;DHT22;6448;48.916;8.990;2024-02-23T05:41:16;11.80;49.80
12769;DHT22;6448;48.916;8.990;2024-02-23T05:42:16;11.90;49.90
12769;DHT22;6448;48.916;8.990;2024-02-23T05:43:17;11.80;49.90
12769;DHT22;6448;48.916;8.990;2024-02-23T05:44:20;11.80;49.80
12769;DHT22;6448;48.916;8.990;2024-02-23T05:45:21;11.80;49.60
12769;DHT22;6448;48.916;8.990;2024-02-23T05:46:23;11.90;49.70
12769;DHT22;6448;48.916;8.990;2024-02-23T05:47:24;11.90;49.70
12769;DHT22;6448;48.916;8.990;2024-02-23T05:48:25;11.80;49.70
12769;DHT22;6448;48.916;8.990;2024-02-23T05:49:26;11.90;49.80
12769;DHT22;6448;48.916;8.990;2024-02-23T05:50:28;11.80;49.80
12769;DHT22;6448;48.916;8.990;2024-02-23T05:51:29;11.80;49.80
12769;DHT22;6448;48.916;8.990;2024-02-23T05:52:31;11.80;49.70
12769;DHT22;6448;48.916;8.990;2024-02-23T05:53:33;11.80;49.80
12769;DHT22;6448;48.916;8.990;2024-02-23T05:54:35;11.80;49.80
12769;DHT22;6448;48.916;8.990;2024-02-23T05:55:36;11.80;49.70
12769;DHT22;6448;48.916;8.990;2024-02-23T05:56:37;11.80;49.80
12769;DHT22;6448;48.916;8.990;2024-02-23T05:57:38;11.80;49.80
12769;DHT22;6448;48.916;8.990;2024-02-23T05:58:41;11.90;49.80
12769;DHT22;6448;48.916;8.990;2024-02-23T05:59:43;11.80;49.80
12769;DHT22;6448;48.916;8.990;2024-02-23T06:00:45;11.80;49.80
12769;DHT22;6448;48.916;8.990;2024-02-23T06:01:46;11.80;49.90
12769;DHT22;6448;48.916;8.990;2024-02-23T06:02:48;11.80;49.90
12769;DHT22;6448;48.916;8.990;2024-02-23T06:03:49;11.80;49.90
12769;DHT22;6448;48.916;8.990;2024-02-23T06:04:51;11.80;50.00
12769;DHT22;6448;48.916;8.990;2024-02-23T06:05:52;11.80;50.00
12769;DHT22;6448;48.916;8.990;2024-02-23T06:06:54;11.80;49.90
12769;DHT22;6448;48.916;8.990;2024-02-23T06:07:55;11.80;49.70
12769;DHT22;6448;48.916;8.990;2024-02-23T06:08:57;11.80;49.70
12769;DHT22;6448;48.916;8.990;2024-02-23T06:09:58;11.80;49.60
12769;DHT22;6448;48.916;8.990;2024-02-23T06:11:00;11.80;49.60
12769;DHT22;6448;48.916;8.990;2024-02-23T06:12:01;11.80;49.40
12769;DHT22;6448;48.916;8.990;2024-02-23T06:13:01;11.80;49.10
12769;DHT22;6448;48.916;8.990;2024-02-23T06:14:03;11.80;49.20
12769;DHT22;6448;48.916;8.990;2024-02-23T06:15:06;11.70;49.20
12769;DHT22;6448;48.916;8.990;2024-02-23T06:16:10;11.80;49.40
12769;DHT22;6448;48.916;8.990;2024-02-23T06:17:12;11.70;49.40
12769;DHT22;6448;48.916;8.990;2024-02-23T06:18:13;11.70;49.50
12769;DHT22;6448;48.916;8.990;2024-02-23T06:19:14;11.70;49.60
12769;DHT22;6448;48.916;8.990;2024-02-23T06:20:15;11.70;49.50
12769;DHT22;6448;48.916;8.990;2024-02-23T06:21:17;11.70;49.50
12769;DHT22;6448;48.916;8.990;2024-02-23T06:22:19;11.70;49.30
12769;DHT22;6448;48.916;8.990;2024-02-23T06:23:21;11.70;49.40
12769;DHT22;6448;48.916;8.990;2024-02-23T06:24:23;11.70;49.40
12769;DHT22;6448;48.916;8.990;2024-02-23T06:25:24;11.70;49.50
12769;DHT22;6448;48.916;8.990;2024-02-23T06:26:26;11.70;49.60
12769;DHT22;6448;48.916;8.990;2024-02-23T06:27:27;11.70;49.60
12769;DHT22;6448;48.916;8.990;2024-02-23T06:28:28;11.60;49.60
12769;DHT22;6448;48.916;8.990;2024-02-23T06:29:30;11.60;49.70
12769;DHT22;6448;48.916;8.990;2024-02-23T06:30:33;11.70;49.60
12769;DHT22;6448;48.916;8.990;2024-02-23T06:31:34;11.80;49.60
12769;DHT22;6448;48.916;8.990;2024-02-23T06:32:36;11.60;49.50
12769;DHT22;6448;48.916;8.990;2024-02-23T06:33:36;11.60;49.60
12769;DHT22;6448;48.916;8.990;2024-02-23T06:34:38;11.60;49.60
12769;DHT22;6448;48.916;8.990;2024-02-23T06:35:39;11.60;49.60
12769;DHT22;6448;48.916;8.990;2024-02-23T06:36:41;11.60;49.50
12769;DHT22;6448;48.916;8.990;2024-02-23T06:37:42;11.50;49.50
12769;DHT22;6448;48.916;8.990;2024-02-23T06:38:43;11.60;49.70
12769;DHT22;6448;48.916;8.990;2024-02-23T06:39:44;11.50;49.70
12769;DHT22;6448;48.916;8.990;2024-02-23T06:40:51;11.50;49.80